Time;durP1;ratioP1;P1;durP2;ratioP2;P2;SDS_P1;SDS_P2;PMS_P1;PMS_P2;Temp;Humidity;BMP_temperature;BMP_pressure;BME280_temperature;BME280_humidity;BME280_pressure;Samples;Min_cycle;Max_cycle;Signal;HPM_P1;HPM_P2
2023/07/11 00:01:30;;;;;;;4.55;3.63;;;19.70;99.90;;;-141.84;65.79;21391.28;4907408;29;20238;-66
2023/07/11 00:03:59;;;;;;;4.93;4.03;;;19.60;99.90;;;-141.84;65.58;21389.22;4906088;29;20326;-66
2023/07/11 00:06:29;;;;;;;4.18;3.40;;;19.50;99.90;;;-141.84;65.15;21360.78;4881020;29;20281;-66
2023/07/11 00:08:57;;;;;;;5.72;3.70;;;19.50;99.90;;;-141.84;64.93;21385.16;4888572;29;20222;-66
2023/07/11 00:11:25;;;;;;;4.97;3.95;;;19.40;99.90;;;-141.84;64.72;21391.28;4907104;29;20264;-67
2023/07/11 00:13:55;;;;;;;4.53;4.13;;;19.50;99.90;;;-141.84;65.13;21377.03;4906615;29;20226;-66
2023/07/11 00:16:23;;;;;;;6.20;3.80;;;19.40;99.90;;;-141.84;65.11;21370.94;4880747;29;20249;-66
2023/07/11 00:18:54;;;;;;;4.10;3.70;;;19.40;99.90;;;-141.84;64.89;21389.22;4888298;29;20234;-66
2023/07/11 00:21:22;;;;;;;4.35;3.95;;;19.40;99.90;;;-141.84;65.55;21354.66;4891708;29;20234;-66
2023/07/11 00:23:51;;;;;;;7.25;4.13;;;19.40;99.90;;;-141.84;65.80;21362.81;4907951;29;20257;-67
2023/07/11 00:26:19;;;;;;;4.32;3.92;;;19.30;99.90;;;-141.84;65.98;21385.16;4879131;29;20321;-66
2023/07/11 00:28:48;;;;;;;4.78;4.38;;;19.30;99.90;;;-141.84;66.34;21318.06;4886095;29;20238;-67
2023/07/11 00:31:16;;;;;;;4.63;3.83;;;19.30;99.90;;;-141.84;66.98;21320.09;4887937;29;20321;-67
2023/07/11 00:33:44;;;;;;;4.55;4.15;;;19.20;99.90;;;-141.84;67.51;21322.13;4887105;29;20718;-67
2023/07/11 00:36:12;;;;;;;5.40;4.18;;;19.20;99.90;;;-141.84;67.55;21275.38;4887250;29;20318;-66
2023/07/11 00:38:40;;;;;;;4.65;4.25;;;19.10;99.90;;;-141.84;67.77;21314.00;4880997;29;20306;-67
2023/07/11 00:41:10;;;;;;;6.30;4.43;;;19.10;99.90;;;-141.84;66.86;21330.28;4888273;29;20325;-66
2023/07/11 00:43:38;;;;;;;5.03;4.20;;;19.20;99.90;;;-141.84;66.75;21360.78;4887857;29;20346;-66
2023/07/11 00:46:13;;;;;;;5.45;4.00;;;19.10;99.90;;;-141.84;66.63;21324.19;4887667;29;20257;-66
2023/07/11 00:48:48;;;;;;;6.03;4.28;;;19.20;99.90;;;-141.84;66.68;21316.03;4879808;29;25089;-67
2023/07/11 00:51:23;;;;;;;5.00;4.25;;;19.20;99.90;;;-141.84;66.49;21344.50;4890287;29;20210;-67
2023/07/11 00:53:52;;;;;;;4.53;3.90;;;19.20;99.90;;;-141.84;66.48;21318.06;4907537;29;20670;-66
2023/07/11 00:56:27;;;;;;;5.47;4.13;;;19.20;99.90;;;-141.84;66.09;21354.66;4904367;29;20233;-68
2023/07/11 00:58:58;;;;;;;5.97;4.40;;;19.10;99.90;;;-141.84;66.58;21305.88;4906285;29;20640;-66
2023/07/11 01:01:27;;;;;;;5.03;4.10;;;19.10;99.90;;;-141.84;66.38;21316.03;4906342;28;20269;-67
2023/07/11 01:03:56;;;;;;;4.95;4.47;;;19.10;99.90;;;-141.84;66.72;21340.44;4905644;28;20341;-67
2023/07/11 01:06:29;;;;;;;4.43;4.03;;;19.10;99.90;;;-141.84;67.21;21253.00;4860969;29;20231;-67
2023/07/11 01:09:01;;;;;;;8.05;4.75;;;19.00;99.90;;;-141.84;67.26;21293.69;4873100;28;20255;-66
2023/07/11 01:11:49;;;;;;;4.72;4.22;;;19.00;99.90;;;-141.84;66.83;21301.81;4907107;28;20305;-65
2023/07/11 01:14:17;;;;;;;4.60;4.20;;;19.00;99.90;;;-141.84;66.98;21318.06;4902775;28;20649;-66
2023/07/11 01:16:46;;;;;;;5.43;4.07;;;19.00;99.90;;;-141.84;66.93;21287.56;4884472;28;20305;-66
2023/07/11 01:19:14;;;;;;;5.10;4.10;;;19.00;99.90;;;-141.84;66.94;21338.41;4906424;28;20732;-67
2023/07/11 01:21:44;;;;;;;4.63;4.03;;;19.10;99.90;;;-141.84;67.03;21301.81;4906204;28;20313;-66
2023/07/11 01:24:13;;;;;;;8.05;4.30;;;19.00;99.90;;;-141.84;66.57;21305.88;4887942;29;20274;-66
2023/07/11 01:26:42;;;;;;;5.38;4.38;;;19.00;99.90;;;-141.84;66.96;21283.50;4880518;29;20215;-66
2023/07/11 01:29:10;;;;;;;5.05;4.50;;;19.00;99.90;;;-141.84;67.58;21265.22;4887504;29;20269;-67
2023/07/11 01:31:39;;;;;;;7.15;4.40;;;18.90;99.90;;;-141.84;67.59;21273.34;4887213;29;20665;-66
2023/07/11 01:34:08;;;;;;;5.10;4.60;;;18.90;99.90;;;-141.84;67.45;21259.13;4886909;29;20226;-67
2023/07/11 01:36:36;;;;;;;5.47;4.55;;;18.90;99.90;;;-141.84;67.59;21261.16;4878919;29;20309;-68
2023/07/11 01:39:07;;;;;;;4.68;4.28;;;18.90;99.90;;;-141.84;68.01;21236.75;4888246;29;20214;-66
2023/07/11 01:41:38;;;;;;;4.82;4.38;;;18.80;99.90;;;-141.84;67.36;21287.56;4887835;29;20318;-67
2023/07/11 01:44:06;;;;;;;5.75;4.35;;;18.90;99.90;;;-141.84;68.11;21226.59;4887820;29;20317;-66
2023/07/11 01:46:34;;;;;;;5.63;4.30;;;18.90;99.90;;;-141.84;67.71;21273.34;4879318;29;20737;-67
2023/07/11 01:49:03;;;;;;;5.90;4.40;;;18.80;99.90;;;-141.84;67.85;21269.28;4887664;29;20280;-67
2023/07/11 01:51:32;;;;;;;4.78;4.20;;;18.80;99.90;;;-141.84;68.05;21242.84;4887204;29;20306;-66
2023/07/11 01:54:00;;;;;;;4.68;4.25;;;18.80;99.90;;;-141.84;67.73;21299.78;4887225;29;20236;-68
2023/07/11 01:56:30;;;;;;;5.10;4.25;;;18.80;99.90;;;-141.84;68.03;21263.19;4880135;29;20245;-67
2023/07/11 01:58:58;;;;;;;5.70;4.07;;;18.80;99.90;;;-141.84;67.47;21261.16;4901965;28;20270;-66
2023/07/11 02:01:26;;;;;;;7.30;4.22;;;18.80;99.90;;;-141.84;67.52;21265.22;4896399;28;20281;-66
2023/07/11 02:03:54;;;;;;;5.10;4.45;;;18.80;99.90;;;-141.84;67.04;21261.16;4886974;28;20271;-67
2023/07/11 02:06:23;;;;;;;6.65;4.13;;;18.80;99.90;;;-141.84;67.40;21265.22;4879908;29;20302;-67
2023/07/11 02:08:51;;;;;;;6.68;4.70;;;18.80;99.90;;;-141.84;68.00;21263.19;4891409;29;20305;-66
2023/07/11 02:11:20;;;;;;;6.32;4.85;;;;;;;-141.84;68.35;21224.56;4906514;28;20714;-66
2023/07/11 02:13:50;;;;;;;5.53;4.53;;;;;;;-141.84;68.87;21187.97;4890969;29;20590;-66
2023/07/11 02:16:18;;;;;;;5.18;4.68;;;;;;;-141.84;68.87;21218.44;4871301;29;20335;-67
2023/07/11 02:18:47;;;;;;;5.90;4.82;;;;;;;-141.84;68.52;21212.34;4872997;29;20291;-66
2023/07/11 02:21:16;;;;;;;5.03;4.47;;;;;;;-141.84;67.70;21281.47;4890048;29;20310;-66
2023/07/11 02:23:44;;;;;;;4.95;4.43;;;;;;;-141.84;67.38;21255.03;4890169;29;20250;-67
2023/07/11 02:26:13;;;;;;;5.40;4.90;;;;;;;-141.84;67.57;21244.88;4889993;29;20247;-67
2023/07/11 02:28:41;;;;;;;5.15;4.47;;;;;;;-141.84;68.07;21253.00;4883190;29;20281;-67
2023/07/11 02:31:11;;;;;;;5.80;5.15;;;;;;;-141.84;67.59;21236.75;4890499;29;20325;-66
2023/07/11 02:33:40;;;;;;;5.72;5.00;;;;;;;-141.84;67.89;21236.75;4890266;29;20231;-66
2023/07/11 02:36:09;;;;;;;5.97;4.70;;;;;;;-141.84;68.22;21248.94;4878246;29;20215;-66
2023/07/11 02:38:37;;;;;;;6.30;5.00;;;;;;;-141.84;68.42;21216.41;4882774;29;20206;-67
2023/07/11 02:41:06;;;;;;;5.63;4.90;;;;;;;-141.84;68.59;21185.91;4892133;29;20302;-67
2023/07/11 02:43:35;;;;;;;5.28;4.30;;;;;;;-141.84;69.18;21181.84;4909142;28;20675;-67
2023/07/11 02:46:03;;;;;;;6.18;4.63;;;;;;;-141.84;69.25;21175.75;4908412;28;20552;-66
2023/07/11 02:48:33;;;;;;;5.00;4.40;;;;;;;-141.84;69.54;21196.09;4901214;28;20226;-66
2023/07/11 02:51:02;;;;;;;5.05;4.60;;;;;;;-141.84;68.95;21214.38;4909104;28;20774;-66
2023/07/11 02:53:30;;;;;;;5.85;4.95;;;;;;;-141.84;69.06;21165.59;4908968;28;20218;-66
2023/07/11 02:55:59;;;;;;;6.78;5.10;;;;;;;-141.84;69.06;21200.16;4908772;28;20242;-67
2023/07/11 02:58:27;;;;;;;5.75;4.78;;;;;;;-141.84;69.66;21173.72;4896041;28;20272;-68
2023/07/11 03:00:59;;;;;;;7.22;5.40;;;;;;;-141.84;69.41;21194.06;4908591;28;20595;-66
2023/07/11 03:03:28;;;;;;;5.53;4.90;;;;;;;-141.84;69.39;21192.03;4908321;28;20711;-67
2023/07/11 03:05:58;;;;;;;6.18;4.72;;;;;;;-141.84;69.46;21179.81;4893186;29;20265;-67
2023/07/11 03:08:27;;;;;;;5.45;4.57;;;;;;;-141.84;69.42;21190.00;4900953;28;20230;-68
2023/07/11 03:10:58;;;;;;;5.63;5.03;;;;;;;-141.84;69.76;21159.50;4908151;29;20230;-68
2023/07/11 03:13:28;;;;;;;5.70;5.20;;;;;;;-141.84;70.20;21200.16;4908528;29;20632;-66
2023/07/11 03:16:01;;;;;;;5.82;5.28;;;;;;;-141.84;70.45;21155.44;4891183;29;20242;-67
2023/07/11 03:18:29;;;;;;;6.35;5.40;;;;;;;-141.84;70.13;21198.13;4881784;29;20652;-67
2023/07/11 03:21:01;;;;;;;6.13;5.53;;;;;;;-141.84;70.85;21151.34;4888430;29;20279;-66
2023/07/11 03:23:31;;;;;;;5.93;4.80;;;;;;;-141.84;70.24;21192.03;4889644;29;20215;-67
2023/07/11 03:25:59;;;;;;;5.60;5.10;;;;;;;-141.84;69.54;21222.53;4888479;29;20528;-67
2023/07/11 03:28:28;;;;;;;6.40;5.25;;;;;;;-141.84;70.06;21179.81;4881913;29;20841;-66
2023/07/11 03:30:56;;;;;;;7.18;5.10;;;;;;;-141.84;69.20;21253.00;4889110;29;20785;-67
2023/07/11 03:33:25;;;;;;;5.15;4.65;;;;;;;-141.84;69.92;21216.41;4889575;29;20254;-67
2023/07/11 03:35:53;;;;;;;5.53;5.03;;;;;;;-141.84;70.32;21187.97;4889514;29;20211;-67
2023/07/11 03:38:23;;;;;;;5.55;5.03;;;;;;;-141.84;69.98;21218.44;4885915;29;20325;-66
2023/07/11 03:40:52;;;;;;;7.25;5.70;;;;;;;-141.84;69.76;21240.81;4889390;29;20262;-66
2023/07/11 03:43:20;;;;;;;5.53;4.60;;;;;;;-141.84;70.29;21210.31;4888469;29;20321;-66
2023/07/11 03:45:49;;;;;;;6.63;5.13;;;;;;;-141.84;71.23;21196.09;4888452;29;20321;-66
2023/07/11 03:48:32;;;;;;;6.45;5.35;;;;;;;-141.84;71.50;21190.00;4880653;29;20241;-66
2023/07/11 03:51:01;;;;;;;6.13;5.18;;;;;;;-141.84;71.57;21200.16;4889025;29;20211;-67
2023/07/11 03:53:30;;;;;;;5.50;5.00;;;;;;;-141.84;71.50;21208.28;4889437;29;20307;-66
2023/07/11 03:55:59;;;;;;;6.25;5.22;;;;;;;-141.84;71.68;21196.09;4888758;29;20230;-67
2023/07/11 03:58:27;;;;;;;8.38;5.82;;;;;;;-141.84;71.80;21220.47;4892142;29;20475;-67
2023/07/11 04:00:56;;;;;;;5.25;4.75;;;;;;;-141.84;72.13;21198.13;4907743;29;20226;-66
2023/07/11 04:03:24;;;;;;;5.78;5.15;;;;;;;-141.84;72.18;21177.78;4907814;29;20254;-66
2023/07/11 04:05:56;;;;;;;6.57;5.10;;;;;;;-141.84;72.59;21167.63;4885275;29;20291;-67
2023/07/11 04:08:24;;;;;;;6.75;5.22;;;;;;;-141.84;71.33;21248.94;4880964;29;20266;-68
2023/07/11 04:10:56;;;;;;;5.88;5.28;;;;;;;-141.84;71.80;21220.47;4901730;29;20234;-66
2023/07/11 04:13:24;;;;;;;5.78;5.28;;;;;;;-141.84;71.93;21222.53;4888797;29;20697;-67
2023/07/11 04:15:53;;;;;;;7.38;5.40;;;;;;;-141.84;71.64;21232.69;4887605;29;20238;-66
2023/07/11 04:18:21;;;;;;;5.68;5.15;;;;;;;-141.84;70.67;21246.91;4886207;29;20310;-67
2023/07/11 04:20:50;;;;;;;6.57;5.97;;;;;;;-141.84;70.99;21236.75;4888578;29;20310;-67
2023/07/11 04:23:18;;;;;;;6.10;5.50;;;;;;;-141.84;71.24;21240.81;4888092;29;20317;-67
2023/07/11 04:25:47;;;;;;;7.03;5.43;;;;;;;-141.84;71.08;21253.00;4887554;29;20719;-68
2023/07/11 04:28:18;;;;;;;7.47;5.88;;;;;;;-141.84;70.20;21263.19;4888482;29;20269;-68
2023/07/11 04:30:47;;;;;;;6.57;5.97;;;;;;;-141.84;69.69;21326.22;4882754;29;20333;-66
2023/07/11 04:33:16;;;;;;;6.40;5.45;;;;;;;-141.84;69.57;21342.47;4888001;29;20596;-67
2023/07/11 04:35:46;;;;;;;6.43;5.82;;;;;;;-141.84;69.57;21318.06;4874164;29;20230;-66
2023/07/11 04:38:15;;;;;;;5.75;5.07;;;;;;;-141.84;69.44;21360.78;4869546;29;20274;-68
2023/07/11 04:40:45;;;;;;;7.75;6.43;;;;;;;-141.84;68.26;21368.91;4867937;29;20723;-67
2023/07/11 04:43:14;;;;;;;6.82;6.22;;;;;;;-141.84;67.21;21433.97;4887347;29;20290;-68
2023/07/11 04:45:43;;;;;;;7.03;5.88;;;;;;;-141.84;66.68;21488.88;4888155;29;20506;-68
2023/07/11 04:48:12;;;;;;;7.30;5.90;;;;;;;-141.84;66.53;21450.22;4887857;29;20309;-67
2023/07/11 04:50:40;;;;;;;7.35;6.38;;;;;;;-141.84;65.61;21505.13;4880659;29;20258;-67
2023/07/11 04:53:09;;;;;;;6.38;5.30;;;;;;;-141.84;65.72;21523.44;4887557;29;20226;-66
2023/07/11 04:55:38;;;;;;;6.68;6.07;;;;;;;-141.84;64.83;21582.38;4887631;29;20234;-66
2023/07/11 04:58:06;;;;;;;6.68;5.57;;;;;;;-141.84;62.30;21883.31;4895241;29;20234;-67
2023/07/11 05:00:34;;;;;;;5.25;4.82;;;21.00;99.90;;;-141.84;56.23;22408.00;4892603;29;20258;-68
2023/07/11 05:03:04;;;;;;;6.80;5.43;;;;;;;-141.84;51.21;22906.28;4887779;29;20683;-68
2023/07/11 05:05:35;;;;;;;7.28;5.25;;;22.40;99.90;;;-141.84;47.55;23282.59;4888510;29;20267;-67
2023/07/11 05:08:04;;;;;;;7.80;4.93;;;;;;;-141.84;44.97;23703.69;4887576;29;20250;-67
2023/07/11 05:10:32;;;;;;;7.97;5.20;;;;;;;-141.84;43.08;24061.75;4880096;29;20245;-67
2023/07/11 05:13:01;;;;;;;8.43;5.13;;;;;;;-141.84;41.46;24393.41;4906509;28;20325;-66
2023/07/11 05:15:29;;;;;;;6.35;4.72;;;;;;;-141.84;40.85;24586.72;4893346;29;20318;-66
2023/07/11 05:17:58;;;;;;;4.70;4.28;;;;;;;-141.84;39.51;24914.31;4887776;29;20224;-68
2023/07/11 05:20:28;;;;;;;8.30;4.50;;;;;;;-141.84;38.49;25064.94;4880913;29;20237;-67
2023/07/11 05:22:56;;;;;;;6.93;4.20;;;;;;;-141.84;38.09;25187.03;4887910;29;20239;-68
2023/07/11 05:25:25;;;;;;;4.65;4.15;;;;;;;-141.84;37.45;25246.06;4887184;29;20227;-67
2023/07/11 05:27:53;;;;;;;4.82;3.85;;;;;;;-141.84;37.16;25370.19;4887324;29;20239;-67
2023/07/11 05:30:22;;;;;;;5.90;4.90;;;;;;;-141.84;36.87;25341.72;4884743;29;20261;-65
2023/07/11 05:32:50;;;;;;;4.15;3.80;;;;;;;-141.84;36.50;25364.09;4888462;29;20636;-68
2023/07/11 05:35:19;;;;;;;5.63;4.50;;;;;;;-141.84;37.08;25191.09;4887172;29;20234;-67
2023/07/11 05:37:49;;;;;;;5.38;3.85;;;;;;;-141.84;37.33;25050.69;4887048;29;20254;-67
2023/07/11 05:40:17;;;;;;;5.22;3.83;;;;;;;-141.84;37.67;24670.13;4886972;29;20278;-67
2023/07/11 05:42:46;;;;;;;4.25;3.60;;;;;;;-141.84;39.77;24196.03;4881329;29;20669;-66
2023/07/11 05:45:14;;;;;;;5.80;3.65;;;;;;;-141.84;41.03;23837.94;4890749;29;20652;-67
2023/07/11 05:47:43;;;;;;;4.65;4.18;;;;;;;-141.84;42.53;23457.53;4891336;29;20289;-69
2023/07/11 05:50:11;;;;;;;5.00;3.75;;;;;;;-141.84;44.17;23243.94;4891215;29;20244;-66
2023/07/11 05:52:40;;;;;;;6.95;4.25;;;;;;;-141.84;44.95;23058.84;4883556;28;20234;-66
2023/07/11 05:55:11;;;;;;;8.85;3.92;;;;;;;-141.84;45.61;22965.28;4890772;29;20265;-67
2023/07/11 05:57:39;;;;;;;6.05;4.13;;;;;;;-141.84;46.83;22887.97;4895001;29;20698;-66
2023/07/11 06:00:09;;;;;;;6.57;4.20;;;;;;;-141.84;46.57;22861.53;4908945;28;20214;-68
2023/07/11 06:02:37;;;;;;;6.00;3.67;;;25.20;99.90;;;-141.84;46.86;22782.22;4902852;28;20241;-67
2023/07/11 06:05:06;;;;;;;5.80;3.95;;;25.60;99.90;;;-141.84;47.15;22761.88;4893950;28;20230;-67
2023/07/11 06:07:34;;;;;;;5.25;3.60;;;25.50;99.90;;;-141.84;47.26;22759.84;4903252;29;20786;-66
2023/07/11 06:10:03;;;;;;;7.38;4.20;;;25.40;99.90;;;-141.84;47.54;22792.38;4909007;29;20792;-67
2023/07/11 06:12:33;;;;;;;8.35;4.18;;;25.40;99.90;;;-141.84;47.55;22761.88;4901623;29;20768;-66
2023/07/11 06:15:02;;;;;;;5.70;3.70;;;25.40;99.90;;;-141.84;47.82;22782.22;4900007;29;20301;-67
2023/07/11 06:17:31;;;;;;;6.28;3.33;;;25.40;99.90;;;-141.84;47.99;22755.78;4853646;29;20305;-67
2023/07/11 06:19:59;;;;;;;4.22;3.83;;;25.40;99.90;;;-141.84;47.50;22810.69;4852847;29;20286;-67
2023/07/11 06:22:27;;;;;;;5.32;3.72;;;25.50;99.90;;;-141.84;47.00;22810.69;4845365;29;20308;-68
2023/07/11 06:24:58;;;;;;;4.30;3.55;;;25.50;99.90;;;-141.84;47.50;22800.50;4852975;29;20422;-67
2023/07/11 06:27:28;;;;;;;5.25;3.22;;;;;;;-141.84;47.06;22841.19;4853423;29;20674;-67
2023/07/11 06:29:58;;;;;;;6.50;3.83;;;;;;;-141.84;46.26;22829.00;4852692;29;20240;-67
2023/07/11 06:32:27;;;;;;;6.25;3.67;;;;;;;-141.84;46.64;22806.63;4845910;29;20269;-66
2023/07/11 06:34:55;;;;;;;4.93;3.65;;;25.50;99.90;;;-141.84;46.73;22851.38;4868033;29;20291;-67
2023/07/11 06:37:24;;;;;;;4.78;3.28;;;25.60;99.90;;;-141.84;46.79;22845.25;4871986;29;20234;-68
2023/07/11 06:39:53;;;;;;;6.32;3.85;;;;;;;-141.84;46.82;22798.47;4872038;29;20385;-67
2023/07/11 06:42:22;;;;;;;3.55;3.20;;;;;;;-141.84;47.03;22845.25;4869858;29;20310;-67
2023/07/11 06:44:51;;;;;;;8.07;3.50;;;;;;;-141.84;46.55;22900.19;4871277;29;20282;-67
2023/07/11 06:47:21;;;;;;;3.85;3.22;;;;;;;-141.84;46.26;22908.31;4871224;29;20604;-69
2023/07/11 06:49:51;;;;;;;4.72;3.22;;;;;;;-141.84;45.58;22908.31;4871023;29;20668;-67
2023/07/11 06:52:20;;;;;;;4.15;3.50;;;;;;;-141.84;45.69;22883.91;4870788;29;20239;-66
2023/07/11 06:54:49;;;;;;;5.50;3.40;;;;;;;-141.84;46.22;22865.59;4867553;29;20806;-68
2023/07/11 06:57:18;;;;;;;5.38;3.33;;;;;;;-141.84;46.60;22890.00;4872162;29;20332;-66
2023/07/11 06:59:48;;;;;;;3.35;3.05;;;;;;;-141.84;46.39;22887.97;4886448;29;20295;-66
2023/07/11 07:02:17;;;;;;;5.05;3.55;;;;;;;-141.84;46.67;22951.03;4870656;29;20243;-66
2023/07/11 07:04:48;;;;;;;3.60;3.30;;;;;;;-141.84;45.80;22920.53;4865255;29;20243;-68
2023/07/11 07:07:19;;;;;;;4.53;3.72;;;;;;;-141.84;46.41;22955.09;4871150;29;20299;-66
2023/07/11 07:09:48;;;;;;;4.43;3.60;;;;;;;-141.84;46.61;22981.53;4879253;29;20235;-67
2023/07/11 07:12:18;;;;;;;4.80;3.33;;;;;;;-141.84;46.50;22973.41;4889611;29;20261;-66
2023/07/11 07:14:47;;;;;;;5.22;4.00;;;;;;;-141.84;46.47;22957.13;4876626;29;20230;-67
2023/07/11 07:17:17;;;;;;;4.47;3.20;;;;;;;-141.84;45.75;22981.53;4887341;29;21007;-70
2023/07/11 07:19:48;;;;;;;5.32;2.97;;;;;;;-141.84;45.43;22969.34;4903546;28;20246;-68
2023/07/11 07:22:17;;;;;;;5.00;3.55;;;;;;;-141.84;45.37;23022.22;4897742;29;20313;-67
2023/07/11 07:24:46;;;;;;;4.13;3.22;;;;;;;-141.84;44.79;23050.69;4888811;29;20246;-66
2023/07/11 07:27:17;;;;;;;4.25;3.40;;;;;;;-141.84;45.36;22983.56;4907906;29;20745;-66
2023/07/11 07:29:56;;;;;;;3.75;3.42;;;;;;;-141.84;45.18;23007.97;4908495;29;20205;-67
2023/07/11 07:32:25;;;;;;;4.05;3.38;;;;;;;-141.84;44.76;23022.22;4900528;29;20226;-66
2023/07/11 07:34:56;;;;;;;4.03;3.10;;;;;;;-141.84;45.45;22989.69;4900809;29;20270;-66
2023/07/11 07:37:24;;;;;;;3.47;2.95;;;26.10;99.90;;;-141.84;43.92;23014.09;4889039;29;20317;-67
2023/07/11 07:39:52;;;;;;;4.25;3.42;;;26.20;99.90;;;-141.84;43.92;22983.56;4889144;29;20322;-68
2023/07/11 07:42:21;;;;;;;3.80;3.40;;;26.20;99.90;;;-141.84;44.06;23005.94;4886946;29;20313;-66
2023/07/11 07:44:51;;;;;;;4.93;3.25;;;26.10;99.90;;;-141.84;44.58;22997.81;4888642;29;20211;-67
2023/07/11 07:47:19;;;;;;;4.15;3.40;;;26.10;99.90;;;-141.84;44.58;22953.06;4888315;29;20326;-68
2023/07/11 07:49:48;;;;;;;4.60;2.95;;;26.10;99.90;;;-141.84;44.12;22981.53;4878382;29;20694;-66
2023/07/11 07:52:24;;;;;;;3.22;2.70;;;26.10;99.90;;;-141.84;43.96;22969.34;4886525;28;20379;-67
2023/07/11 07:54:52;;;;;;;3.10;2.80;;;26.00;99.90;;;-141.84;43.70;23022.22;4908391;29;20238;-67
2023/07/11 07:57:22;;;;;;;3.72;2.90;;;;;;;-141.84;43.49;23026.28;4906247;28;20343;-67
2023/07/11 07:59:51;;;;;;;2.83;2.53;;;;;;;-141.84;43.85;22969.34;4908223;29;20238;-70
2023/07/11 08:02:20;;;;;;;3.38;2.80;;;;;;;-141.84;43.27;22969.34;4907705;29;20320;-67
2023/07/11 08:04:50;;;;;;;3.20;2.60;;;;;;;-141.84;43.35;22973.41;4897006;29;20231;-67
2023/07/11 08:07:19;;;;;;;2.95;2.58;;;;;;;-141.84;43.66;22922.56;4888257;29;20238;-68
2023/07/11 08:09:50;;;;;;;2.97;2.67;;;;;;;-141.84;43.24;22971.38;4893300;29;20261;-67
2023/07/11 08:12:20;;;;;;;3.60;2.75;;;;;;;-141.84;43.06;22979.50;4921709;28;20281;-66
2023/07/11 08:14:49;;;;;;;3.00;2.70;;;;;;;-141.84;43.13;22969.34;4896970;29;20238;-68
2023/07/11 08:17:19;;;;;;;2.58;2.38;;;;;;;-141.84;42.95;22973.41;4888035;28;20815;-66
2023/07/11 08:19:49;;;;;;;3.75;2.85;;;;;;;-141.84;43.10;22979.50;4888651;29;20238;-66
2023/07/11 08:22:18;;;;;;;5.18;3.00;;;;;;;-141.84;42.99;22953.06;4888268;29;20234;-66
2023/07/11 08:24:49;;;;;;;3.22;2.92;;;;;;;-141.84;43.76;22981.53;4883602;29;20302;-68
2023/07/11 08:27:19;;;;;;;5.82;3.30;;;;;;;-141.84;43.99;22961.19;4888961;29;20370;-66
2023/07/11 08:29:49;;;;;;;4.35;3.30;;;;;;;-141.84;44.20;22936.78;4888479;29;20258;-68
2023/07/11 08:32:19;;;;;;;4.68;3.10;;;;;;;-141.84;43.25;22985.59;4888263;29;20765;-67
2023/07/11 08:34:48;;;;;;;3.45;2.88;;;;;;;-141.84;43.59;23018.16;4883798;29;20244;-68
2023/07/11 08:37:19;;;;;;;4.78;2.65;;;;;;;-141.84;43.15;23054.75;4887573;29;20242;-67
2023/07/11 08:39:50;;;;;;;3.42;3.13;;;;;;;-141.84;43.42;23018.16;4888262;29;20326;-68
2023/07/11 08:42:29;;;;;;;4.72;3.03;;;;;;;-141.84;42.30;23030.34;4887582;29;20265;-67
2023/07/11 08:45:07;;;;;;;3.72;3.00;;;26.00;99.90;;;-141.84;42.81;23028.31;4886724;29;20509;-68
2023/07/11 08:47:43;;;;;;;4.55;3.40;;;26.10;99.90;;;-141.84;43.29;22983.56;4888520;29;20583;-67
2023/07/11 08:50:17;;;;;;;3.35;2.80;;;26.00;99.90;;;-141.84;42.53;23115.78;4887847;29;20245;-68
2023/07/11 08:52:51;;;;;;;4.13;3.55;;;26.20;99.90;;;-141.84;42.18;23046.63;4888362;29;20673;-67
2023/07/11 08:55:29;;;;;;;4.43;3.38;;;26.20;99.90;;;-141.84;42.66;23054.75;4907076;29;20317;-67
2023/07/11 08:58:10;;;;;;;3.40;3.10;;;26.30;99.90;;;-141.84;42.31;23085.28;4913564;29;20260;-68
2023/07/11 09:00:40;;;;;;;3.80;2.95;;;26.30;99.90;;;-141.84;41.77;23109.69;4918680;28;20257;-67
2023/07/11 09:03:22;;;;;;;3.95;3.13;;;26.30;99.90;;;-141.84;41.79;23107.66;4925512;28;20300;-67
2023/07/11 09:05:57;;;;;;;3.72;3.03;;;26.40;99.90;;;-141.84;41.87;23152.41;4911232;29;20266;-68
2023/07/11 09:08:26;;;;;;;3.40;3.10;;;26.40;99.90;;;-141.84;41.99;23123.94;4899045;29;20322;-67
2023/07/11 09:11:05;;;;;;;3.30;3.00;;;26.40;99.90;;;-141.84;41.96;23148.34;4910674;28;20259;-66
2023/07/11 09:13:59;;;;;;;4.53;2.92;;;26.50;99.90;;;-141.84;41.70;23209.34;4909890;28;20776;-66
2023/07/11 09:16:36;;;;;;;3.67;3.35;;;26.60;99.90;;;-141.84;41.42;23217.50;4875607;29;20242;-67
2023/07/11 09:19:26;;;;;;;3.38;3.08;;;26.60;99.90;;;-141.84;41.60;23170.72;4893032;29;20233;-67
2023/07/11 09:22:09;;;;;;;4.00;2.90;;;26.70;99.90;;;-141.84;41.48;23123.94;4894067;29;20269;-66
2023/07/11 09:24:47;;;;;;;3.45;3.05;;;;;;;-141.84;41.82;23164.59;4886671;29;20716;-66
2023/07/11 09:27:23;;;;;;;3.40;3.10;;;;;;;-141.84;41.42;23256.13;4894063;29;20293;-68
2023/07/11 09:29:54;;;;;;;3.83;2.90;;;;;;;-141.84;41.13;23276.47;4893802;29;20229;-66
2023/07/11 09:32:31;;;;;;;3.97;2.90;;;;;;;-141.84;41.02;23298.84;4905518;29;20225;-67
2023/07/11 09:35:14;;;;;;;3.50;2.75;;;;;;;-141.84;41.10;23298.84;4912953;28;20268;-68
2023/07/11 09:37:47;;;;;;;3.67;3.10;;;;;;;-141.84;40.49;23296.81;4912893;28;20383;-67
2023/07/11 09:40:25;;;;;;;4.13;3.20;;;;;;;-141.84;40.33;23357.84;4912367;28;20230;-67
2023/07/11 09:42:57;;;;;;;3.45;3.08;;;;;;;-141.84;40.20;23376.16;4897723;29;20237;-66
2023/07/11 09:45:34;;;;;;;3.45;2.90;;;;;;;-141.84;39.93;23427.00;4893823;29;20230;-67
2023/07/11 09:48:12;;;;;;;3.20;2.97;;;;;;;-141.84;40.18;23357.84;4893866;29;20273;-67
2023/07/11 09:51:00;;;;;;;3.17;2.88;;;;;;;-141.84;39.95;23382.25;4886759;28;20268;-66
2023/07/11 09:53:33;;;;;;;4.35;2.72;;;;;;;-141.84;40.24;23433.13;4912741;28;20673;-68
2023/07/11 09:56:04;;;;;;;3.15;2.83;;;;;;;-141.84;40.27;23414.81;4912560;28;20711;-66
2023/07/11 09:58:37;;;;;;;4.53;2.90;;;;;;;-141.84;40.24;23447.34;4917430;28;20237;-66
2023/07/11 10:01:08;;;;;;;4.63;3.00;;;;;;;-141.84;40.38;23445.31;4922833;28;20266;-66
2023/07/11 10:03:37;;;;;;;3.38;3.08;;;;;;;-141.84;39.55;23526.69;4912541;28;20312;-66
2023/07/11 10:06:06;;;;;;;3.83;3.28;;;;;;;-141.84;39.31;23492.09;4895863;29;20222;-67
2023/07/11 10:08:41;;;;;;;3.13;2.80;;;;;;;-141.84;39.17;23534.84;4885578;29;20742;-67
2023/07/11 10:11:14;;;;;;;3.10;2.72;;;;;;;-141.84;39.25;23481.94;4899403;28;20323;-67
2023/07/11 10:13:46;;;;;;;3.50;2.63;;;27.50;99.90;;;-141.84;38.95;23555.19;4893846;29;20261;-66
2023/07/11 10:16:18;;;;;;;3.00;2.80;;;27.60;99.90;;;-141.84;39.01;23575.50;4892605;29;20249;-66
2023/07/11 10:18:47;;;;;;;4.40;2.90;;;;;;;-141.84;38.64;23671.13;4888562;29;20246;-67
2023/07/11 10:21:19;;;;;;;3.13;2.85;;;;;;;-141.84;38.35;23616.19;4893170;29;20293;-66
2023/07/11 10:23:59;;;;;;;3.53;3.13;;;27.90;99.90;;;-141.84;38.07;23709.78;4893040;29;20315;-67
2023/07/11 10:26:30;;;;;;;3.28;2.97;;;;;;;-141.84;37.69;23750.47;4885823;29;20211;-68
2023/07/11 10:29:07;;;;;;;3.40;2.78;;;;;;;-141.84;37.69;23781.00;4892649;29;20227;-66
2023/07/11 10:31:56;;;;;;;4.95;3.03;;;;;;;-141.84;37.59;23691.47;4890075;29;20235;-67
2023/07/11 10:34:29;;;;;;;8.82;2.90;;;;;;;-141.84;37.53;23693.50;4883651;29;20239;-68
2023/07/11 10:37:05;;;;;;;3.88;3.25;;;;;;;-141.84;38.21;23654.84;4890115;29;20238;-67
2023/07/11 10:39:41;;;;;;;5.55;3.75;;;;;;;-141.84;38.85;23642.66;4890535;29;20230;-67
2023/07/11 10:42:24;;;;;;;4.10;3.70;;;;;;;-141.84;38.75;23734.19;4889803;29;20249;-67
2023/07/11 10:45:03;;;;;;;6.25;4.32;;;;;;;-141.84;38.82;23740.31;4890775;29;20214;-67
2023/07/11 10:47:39;;;;;;;4.22;3.67;;;;;;;-141.84;38.67;23750.47;4890138;29;20582;-66
2023/07/11 10:50:32;;;;;;;4.47;3.75;;;;;;;-141.84;38.42;23675.19;4890181;29;20235;-66
2023/07/11 10:53:09;;;;;;;3.50;3.20;;;;;;;-141.84;38.44;23738.25;4890304;29;20587;-67
2023/07/11 10:55:50;;;;;;;4.28;3.45;;;;;;;-141.84;38.67;23734.19;4889854;29;20253;-66
2023/07/11 10:58:23;;;;;;;4.25;3.55;;;28.10;99.90;;;-141.84;38.67;23717.91;4899291;29;20289;-67
2023/07/11 11:01:10;;;;;;;4.25;3.28;;;28.20;99.90;;;-141.84;38.17;23774.88;4908658;28;20737;-67
2023/07/11 11:03:43;;;;;;;3.88;3.47;;;28.20;99.90;;;-141.84;38.32;23791.16;4909185;28;20317;-67
2023/07/11 11:06:25;;;;;;;4.18;3.78;;;;;;;-141.84;37.98;23837.94;4891041;29;20205;-67